Time;durP1;ratioP1;P1;durP2;ratioP2;P2;SDS_P1;SDS_P2;PMS_P1;PMS_P2;Temp;Humidity;BMP_temperature;BMP_pressure;BME280_temperature;BME280_humidity;BME280_pressure;Samples;Min_cycle;Max_cycle;Signal;HPM_P1;HPM_P2
2023/01/11 00:01:19;;;;;;;335.43;42.20;;;;;;;1.38;100.00;100297.84;4223141;28;20240;-66
2023/01/11 00:03:45;;;;;;;261.43;38.57;;;;;;;1.42;100.00;100293.25;4221416;28;22253;-67
2023/01/11 00:06:12;;;;;;;266.27;39.93;;;;;;;1.43;100.00;100292.34;4218486;28;20256;-68
2023/01/11 00:08:38;;;;;;;267.27;42.33;;;;;;;1.43;100.00;100295.78;4238831;28;20233;-66
2023/01/11 00:11:12;;;;;;;323.20;43.60;;;;;;;1.50;100.00;100304.16;4222722;28;20227;-66
2023/01/11 00:13:39;;;;;;;258.00;42.53;;;;;;;1.51;100.00;100297.97;4219411;28;20236;-65
2023/01/11 00:16:06;;;;;;;350.33;45.33;;;;;;;1.46;100.00;100297.41;4217065;28;20336;-67
2023/01/11 00:18:33;;;;;;;304.03;46.73;;;;;;;1.54;100.00;100297.78;4223364;28;20238;-67
2023/01/11 00:21:04;;;;;;;299.60;42.90;;;;;;;1.43;100.00;100303.66;4216142;28;22552;-68
2023/01/11 00:23:32;;;;;;;224.03;39.00;;;;;;;1.44;100.00;100294.00;4238706;28;21442;-66
2023/01/11 00:26:01;;;;;;;242.57;39.03;;;;;;;1.45;100.00;100303.56;4220410;28;21028;-66
2023/01/11 00:28:27;;;;;;;311.03;45.20;;;;;;;1.44;100.00;100299.25;4220800;28;20226;-68
2023/01/11 00:30:54;;;;;;;249.87;41.97;;;;;;;1.50;100.00;100298.03;4224994;28;22236;-66
2023/01/11 00:33:20;;;;;;;201.60;39.20;;;;;;;1.58;100.00;100304.53;4221480;28;20667;-66
2023/01/11 00:35:50;;;;;;;296.10;42.57;;;;;;;1.49;100.00;100297.19;4220810;28;20356;-68
2023/01/11 00:47:55;;;;;;;297.43;44.23;;;;;;;1.57;100.00;100289.75;4223590;28;21215;-66
2023/01/11 00:49:21;;;;;;;279.23;42.80;;;;;;;1.58;100.00;100306.31;4233603;28;20237;-66
2023/01/11 00:51:48;;;;;;;272.90;41.77;;;;;;;1.48;100.00;100312.09;4220063;28;21540;-67
2023/01/11 00:54:14;;;;;;;274.33;41.53;;;;;;;1.47;100.00;100317.41;4225290;28;21739;-66
2023/01/11 00:56:41;;;;;;;297.30;38.80;;;;;;;1.50;100.00;100322.50;4227438;28;20286;-67
2023/01/11 00:59:08;;;;;;;360.97;45.53;;;;;;;1.43;100.00;100322.00;4231217;28;20238;-66
2023/01/11 01:01:35;;;;;;;258.27;40.00;;;;;;;1.49;100.00;100326.03;4226898;28;20236;-65
2023/01/11 01:04:01;;;;;;;246.07;40.30;;;;;;;1.49;100.00;100320.81;4226946;28;20316;-66
2023/01/11 01:06:28;;;;;;;356.37;43.20;;;;;;;1.45;100.00;100324.53;4216442;28;20238;-68
2023/01/11 01:08:55;;;;;;;283.90;42.13;;;;;;;1.49;100.00;100323.41;4211565;28;25745;-66
2023/01/11 01:11:22;;;;;;;360.30;44.87;;;;;;;1.53;100.00;100330.19;4239973;28;21215;-66
2023/01/11 01:16:33;;;;;;;214.27;38.67;;;;;;;1.60;100.00;100328.88;4220862;28;25765;-66
2023/01/11 01:19:00;;;;;;;407.40;47.00;;;;;;;1.55;100.00;100325.69;4227145;28;20227;-65
2023/01/11 01:21:26;;;;;;;352.13;43.73;;;;;;;1.59;100.00;100326.34;4233444;28;21792;-67
2023/01/11 01:23:53;;;;;;;471.40;51.70;;;;;;;1.57;100.00;100321.22;4228041;28;20390;-67
2023/01/11 01:26:20;;;;;;;450.30;48.83;;;;;;;1.55;100.00;100320.47;4220562;28;21115;-68
2023/01/11 01:28:47;;;;;;;558.40;54.20;;;;;;;1.62;100.00;100324.41;4228107;28;20235;-66
2023/01/11 01:31:14;;;;;;;334.37;48.40;;;;;;;1.66;100.00;100338.16;4216325;28;20685;-66
2023/01/11 01:33:40;;;;;;;507.90;54.43;;;;;;;1.66;100.00;100335.53;4219386;28;21058;-66
2023/01/11 01:36:07;;;;;;;330.57;46.63;;;;;;;1.70;100.00;100344.91;4220524;28;20940;-67
2023/01/11 01:38:34;;;;;;;501.37;55.33;;;;;;;1.71;100.00;100340.50;4228005;28;20336;-65
2023/01/11 01:41:00;;;;;;;268.10;46.00;;;;;;;1.76;100.00;100325.38;4221615;28;25187;-66
2023/01/11 01:43:52;;;;;;;400.80;50.00;;;;;;;1.81;100.00;100329.41;4230502;28;20224;-66
2023/01/11 01:46:21;;;;;;;381.97;52.83;;;;;;;1.86;100.00;100329.13;4227767;28;20228;-65
2023/01/11 01:49:01;;;;;;;304.90;50.07;;;;;;;1.99;100.00;100335.31;4222175;28;20231;-66
2023/01/11 01:51:32;;;;;;;323.67;52.43;;;;;;;1.94;100.00;100328.66;4213372;28;20226;-66
2023/01/11 01:54:03;;;;;;;560.47;58.27;;;;;;;1.95;100.00;100328.56;4218939;28;20242;-65
2023/01/11 01:57:00;;;;;;;307.37;53.00;;;;;;;2.02;100.00;100329.88;4236841;28;20291;-67
2023/01/11 01:59:29;;;;;;;453.53;58.30;;;;;;;2.04;100.00;100328.00;4202120;28;20237;-66
2023/01/11 02:01:56;;;;;;;424.60;57.83;;;;;;;2.03;100.00;100331.56;4227979;28;21235;-66
2023/01/11 02:04:28;;;;;;;425.03;58.80;;;;;;;2.05;100.00;100334.94;4216257;28;25386;-67
2023/01/11 02:07:00;;;;;;;332.27;55.77;;;;;;;2.04;100.00;100329.81;4223029;28;20235;-68
2023/01/11 02:09:33;;;;;;;344.43;54.33;;;;;;;2.00;100.00;100323.03;4233573;28;20236;-68
2023/01/11 02:12:01;;;;;;;340.83;53.50;;;;;;;1.97;100.00;100325.88;4225515;28;20246;-66
2023/01/11 02:14:28;;;;;;;253.30;49.40;;;;;;;2.00;100.00;100321.25;4231266;28;20298;-67
2023/01/11 02:16:54;;;;;;;221.97;46.83;;;;;;;2.04;100.00;100320.13;4232385;28;20235;-65
2023/01/11 02:19:44;;;;;;;250.93;52.67;;;;;;;2.06;100.00;100322.66;4234056;28;20406;-65
2023/01/11 02:22:45;;;;;;;242.67;50.00;;;;;;;2.10;100.00;100316.28;4217479;28;20249;-65
2023/01/11 02:25:19;;;;;;;234.60;46.77;;;;;;;2.09;100.00;100328.56;4219009;28;20507;-67
2023/01/11 02:28:09;;;;;;;248.40;48.00;;;;;;;2.12;100.00;100319.66;4225287;28;22413;-65
2023/01/11 02:30:46;;;;;;;342.67;52.40;;;;;;;2.07;100.00;100317.31;4230187;28;21792;-68
2023/01/11 02:33:23;;;;;;;243.60;50.80;;;;;;;2.16;100.00;100315.09;4226080;28;21580;-65
2023/01/11 02:35:56;;;;;;;250.47;52.73;;;;;;;2.21;100.00;100315.63;4213746;28;20292;-66
2023/01/11 02:38:43;;;;;;;269.13;50.93;;;;;;;2.25;100.00;100315.34;4219929;28;21801;-67
2023/01/11 02:41:25;;;;;;;258.87;50.63;;;;;;;2.25;100.00;100325.03;4208285;28;20239;-65
2023/01/11 02:47:01;;;;;;;196.87;48.20;;;;;;;2.28;100.00;100309.06;4222508;28;20238;-66
2023/01/11 02:49:49;;;;;;;317.07;53.80;;;;;;;2.21;100.00;100303.34;4214982;28;20240;-69
2023/01/11 02:52:28;;;;;;;320.00;56.73;;;;;;;2.23;100.00;100311.97;4222533;28;20449;-69
2023/01/11 02:54:56;;;;;;;303.27;54.07;;;;;;;2.25;100.00;100310.09;4217832;28;20300;-65
2023/01/11 02:57:24;;;;;;;258.40;51.43;;;;;;;2.28;100.00;100309.06;4236356;28;20292;-67
2023/01/11 02:59:53;;;;;;;290.07;56.13;;;;;;;2.21;100.00;100316.47;4224733;28;20235;-67
2023/01/11 03:02:20;;;;;;;245.77;54.57;;;;;;;2.22;100.00;100320.78;4224509;28;25121;-66
2023/01/11 03:04:46;;;;;;;221.03;52.77;;;;;;;2.29;100.00;100321.25;4217126;28;20228;-67
2023/01/11 03:07:39;;;;;;;252.80;52.90;;;;;;;2.29;100.00;100314.25;4216784;28;20941;-66
2023/01/11 03:10:17;;;;;;;242.33;52.53;;;;;;;2.27;100.00;100317.88;4201520;28;21062;-65
2023/01/11 03:12:51;;;;;;;257.93;50.67;;;;;;;2.32;100.00;100315.81;4212218;28;20263;-65
2023/01/11 03:15:46;;;;;;;213.47;50.93;;;;;;;2.31;100.00;100306.25;4223207;28;20232;-66
2023/01/11 03:18:34;;;;;;;167.47;47.43;;;;;;;2.54;100.00;100310.91;4222726;28;20387;-70
2023/01/11 03:21:23;;;;;;;219.03;49.90;;;;;;;2.44;100.00;100312.44;4222401;28;20240;-68
2023/01/11 03:24:11;;;;;;;219.53;49.03;;;;;;;2.37;100.00;100318.16;4224317;28;20535;-67
2023/01/11 03:27:22;;;;;;;258.10;52.00;;;;;;;2.32;100.00;100321.06;4219172;28;20234;-67
2023/01/11 03:30:14;;;;;;;216.97;46.93;;;;;;;2.46;100.00;100317.59;4216027;28;21126;-69
2023/01/11 03:32:47;;;;;;;293.07;53.30;;;;;;;2.32;100.00;100315.81;4218341;28;20250;-68
2023/01/11 03:35:25;;;;;;;242.43;48.83;;;;;;;2.33;100.00;100317.50;4222341;28;20346;-69
2023/01/11 03:38:01;;;;;;;341.10;55.57;;;;;;;2.29;100.00;100305.50;4216500;28;20325;-68
2023/01/11 03:40:35;;;;;;;230.97;44.33;;;;;;;2.37;100.00;100303.25;4224963;28;20295;-67
2023/01/11 03:43:10;;;;;;;232.20;49.70;;;;;;;2.37;100.00;100300.63;4215782;28;20247;-66
2023/01/11 03:45:49;;;;;;;201.33;43.67;;;;;;;2.46;100.00;100296.59;4220232;28;20232;-67
2023/01/11 03:48:28;;;;;;;162.53;40.23;;;;;;;2.41;100.00;100294.25;4215536;28;21737;-65
2023/01/11 03:50:55;;;;;;;261.67;46.10;;;;;;;2.50;100.00;100298.88;4207664;28;20227;-64
2023/01/11 03:53:22;;;;;;;165.23;40.93;;;;;;;2.47;100.00;100293.84;4235099;28;23463;-66
2023/01/11 03:55:55;;;;;;;227.27;45.60;;;;;;;2.51;100.00;100300.59;4219155;28;20231;-69
2023/01/11 03:58:24;;;;;;;189.33;38.33;;;;;;;2.58;100.00;100306.31;4229433;28;20683;-67
2023/01/11 04:00:50;;;;;;;179.03;40.13;;;;;;;2.47;100.00;100304.34;4210509;28;20840;-67
2023/01/11 04:03:17;;;;;;;211.10;40.97;;;;;;;2.38;100.00;100304.91;4221317;28;20234;-67
2023/01/11 04:05:47;;;;;;;222.83;40.57;;;;;;;2.46;100.00;100307.94;4211551;28;20302;-65
2023/01/11 04:08:14;;;;;;;179.90;37.60;;;;;;;2.47;100.00;100308.75;4209633;28;20326;-66
2023/01/11 04:10:40;;;;;;;208.50;40.03;;;;;;;2.47;100.00;100301.72;4217355;28;20267;-65
2023/01/11 04:13:07;;;;;;;171.33;37.77;;;;;;;2.41;100.00;100296.88;4225258;28;21800;-65
2023/01/11 04:15:34;;;;;;;178.40;37.60;;;;;;;2.47;100.00;100300.88;4234586;28;21179;-65
2023/01/11 04:18:04;;;;;;;160.50;37.03;;;;;;;2.57;100.00;100296.72;4220277;28;20235;-65
2023/01/11 04:20:32;;;;;;;231.47;43.13;;;;;;;2.52;100.00;100302.28;4229012;28;20235;-67
2023/01/11 04:22:59;;;;;;;193.67;40.63;;;;;;;2.62;100.00;100299.06;4228133;28;20335;-66
2023/01/11 04:25:25;;;;;;;249.93;39.10;;;;;;;2.64;100.00;100299.81;4231383;28;20422;-65
2023/01/11 04:27:52;;;;;;;238.53;41.60;;;;;;;2.57;100.00;100301.16;4230687;28;20224;-66
2023/01/11 04:30:19;;;;;;;235.73;41.27;;;;;;;2.44;100.00;100304.56;4223342;28;20242;-65
2023/01/11 04:32:45;;;;;;;220.47;43.20;;;;;;;2.44;100.00;100296.66;4224153;28;20327;-67
2023/01/11 04:35:12;;;;;;;253.67;44.63;;;;;;;2.47;100.00;100296.47;4235586;28;20223;-68
2023/01/11 04:37:39;;;;;;;250.83;39.23;;;;;;;2.47;100.00;100295.63;4234165;28;21869;-68
2023/01/11 04:40:06;;;;;;;209.57;36.47;;;;;;;2.61;100.00;100300.84;4217388;28;20245;-66
2023/01/11 04:42:32;;;;;;;178.17;33.13;;;;;;;2.56;100.00;100296.84;4225568;28;23705;-67
2023/01/11 04:44:59;;;;;;;192.60;35.40;;;;;;;2.45;100.00;100293.09;4227927;28;23177;-65
2023/01/11 04:47:25;;;;;;;172.13;35.90;;;;;;;2.45;100.00;100293.09;4209506;28;20241;-66
2023/01/11 04:49:52;;;;;;;163.87;34.53;;;;;;;2.47;100.00;100295.63;4218213;28;25778;-64
2023/01/11 04:52:19;;;;;;;177.03;31.30;;;;;;;2.48;100.00;100298.16;4224923;28;21828;-64
2023/01/11 04:54:47;;;;;;;194.20;28.57;;;;;;;2.47;100.00;100299.09;4208012;28;20416;-66
2023/01/11 04:57:15;;;;;;;154.10;29.23;;;;;;;2.40;100.00;100296.97;4216827;28;20236;-65
2023/01/11 04:59:42;;;;;;;169.17;28.67;;;;;;;2.30;100.00;100301.94;4231527;28;20660;-65
2023/01/11 05:02:08;;;;;;;156.00;27.40;;;;;;;2.31;100.00;100299.19;4232776;28;21210;-65
2023/01/11 05:04:35;;;;;;;193.70;28.73;;;;;;;2.31;100.00;100299.19;4221150;28;20298;-65
2023/01/11 05:07:01;;;;;;;169.47;26.13;;;;;;;2.37;100.00;100300.63;4201980;28;20251;-65
2023/01/11 05:09:28;;;;;;;128.47;27.73;;;;;;;2.23;100.00;100295.38;4231626;28;20232;-67
2023/01/11 05:11:54;;;;;;;174.80;25.13;;;;;;;2.27;100.00;100297.72;4219420;28;22644;-65
2023/01/11 05:14:21;;;;;;;142.57;25.97;;;;;;;2.19;100.00;100293.88;4223942;28;21259;-65
2023/01/11 05:16:48;;;;;;;100.60;23.83;;;;;;;2.36;100.00;100296.28;4213685;28;20313;-67
2023/01/11 05:19:15;;;;;;;112.60;23.37;;;;;;;2.26;100.00;100306.53;4224537;28;20397;-66
2023/01/11 05:21:41;;;;;;;110.73;22.97;;;;;;;2.26;100.00;100301.28;4207978;28;21349;-66
2023/01/11 05:24:11;;;;;;;116.77;24.80;;;;;;;2.27;100.00;100308.22;4237391;28;20850;-67
2023/01/11 05:26:39;;;;;;;126.37;23.73;;;;;;;2.29;100.00;100305.50;4223681;28;20309;-66
2023/01/11 05:29:08;;;;;;;116.97;24.07;;;;;;;2.19;100.00;100305.22;4220693;28;21795;-67
2023/01/11 05:31:36;;;;;;;105.77;22.83;;;;;;;2.21;100.00;100303.34;4229760;28;20231;-65
2023/01/11 05:34:05;;;;;;;114.00;22.80;;;;;;;2.19;100.00;100307.84;4219550;28;20246;-68
2023/01/11 05:36:33;;;;;;;103.03;20.67;;;;;;;2.18;100.00;100298.31;4219696;28;20330;-67
2023/01/11 05:38:59;;;;;;;99.43;21.63;;;;;;;2.25;100.00;100294.34;4233599;28;20677;-67
2023/01/11 05:41:26;;;;;;;103.63;22.20;;;;;;;2.19;100.00;100293.88;4222197;28;20231;-68
2023/01/11 05:46:41;;;;;;;115.93;21.20;;;;;;;2.24;100.00;100286.56;4218163;28;20398;-67
2023/01/11 05:49:09;;;;;;;88.83;19.40;;;;;;;2.21;100.00;100286.75;4225488;28;23917;-65
2023/01/11 05:51:37;;;;;;;92.87;19.63;;;;;;;2.28;100.00;100283.66;4222843;28;23194;-66
2023/01/11 05:54:05;;;;;;;102.57;20.67;;;;;;;2.17;100.00;100282.63;4226213;28;20227;-68
2023/01/11 05:56:32;;;;;;;101.70;20.83;;;;;;;2.13;100.00;100273.25;4215119;28;20433;-68
2023/01/11 05:58:58;;;;;;;105.37;21.03;;;;;;;2.22;100.00;100275.31;4224887;28;20354;-68
2023/01/11 06:01:25;;;;;;;92.00;20.00;;;;;;;2.24;100.00;100270.81;4222155;28;20235;-66
2023/01/11 06:03:51;;;;;;;88.67;20.07;;;;;;;2.32;100.00;100271.19;4228006;28;20668;-65
2023/01/11 06:06:19;;;;;;;122.90;26.17;;;;;;;2.24;100.00;100274.28;4223532;28;20387;-69
2023/01/11 06:08:46;;;;;;;126.53;22.83;;;;;;;2.29;100.00;100274.00;4223058;28;20250;-66
2023/01/11 06:11:13;;;;;;;129.80;24.80;;;;;;;2.24;100.00;100273.44;4230741;28;20244;-67
2023/01/11 06:13:40;;;;;;;117.67;24.10;;;;;;;2.29;100.00;100269.59;4228194;28;20242;-65
2023/01/11 06:16:11;;;;;;;114.13;24.47;;;;;;;2.28;100.00;100272.31;4218789;28;20301;-67
2023/01/11 06:18:42;;;;;;;105.87;22.30;;;;;;;2.37;100.00;100276.16;4226822;28;20339;-65
2023/01/11 06:21:09;;;;;;;100.87;23.10;;;;;;;2.35;100.00;100273.63;4229902;28;20666;-66
2023/01/11 06:23:39;;;;;;;112.87;23.87;;;;;;;2.28;100.00;100269.69;4231230;28;20365;-67
2023/01/11 06:26:09;;;;;;;119.53;24.03;;;;;;;2.33;100.00;100281.56;4222646;28;21659;-65
2023/01/11 06:28:36;;;;;;;126.53;25.27;;;;;;;2.28;100.00;100267.06;4220298;28;20410;-67
2023/01/11 06:31:03;;;;;;;104.33;22.87;;;;;;;2.33;100.00;100281.56;4222498;28;20307;-69
2023/01/11 06:33:30;;;;;;;113.17;24.33;;;;;;;2.30;100.00;100275.69;4223666;28;20741;-67
2023/01/11 06:35:57;;;;;;;109.80;22.77;;;;;;;2.40;100.00;100271.53;4227145;28;20781;-68
2023/01/11 06:38:25;;;;;;;103.77;23.43;;;;;;;2.36;100.00;100272.66;4224667;28;20240;-66
2023/01/11 06:40:56;;;;;;;106.57;24.53;;;;;;;2.27;100.00;100270.59;4218413;28;20415;-69
2023/01/11 06:43:24;;;;;;;109.07;24.67;;;;;;;2.28;100.00;100262.66;4221111;28;20232;-67
2023/01/11 06:45:51;;;;;;;108.50;24.10;;;;;;;2.43;100.00;100271.34;4225217;28;20229;-67
2023/01/11 06:48:18;;;;;;;100.77;24.57;;;;;;;2.34;100.00;100269.28;4222690;28;20236;-65
2023/01/11 06:50:49;;;;;;;105.87;25.40;;;;;;;2.29;100.00;100264.34;4255755;28;26238;-66
2023/01/11 06:53:16;;;;;;;113.37;27.07;;;;;;;2.32;100.00;100269.41;4223627;28;21792;-67
2023/01/11 06:55:42;;;;;;;99.13;25.03;;;;;;;2.32;100.00;100268.56;4232849;28;20284;-69
2023/01/11 06:58:09;;;;;;;103.00;26.57;;;;;;;2.42;100.00;100272.28;4236577;28;20404;-68
2023/01/11 07:00:37;;;;;;;108.30;25.67;;;;;;;2.37;100.00;100271.75;4236914;28;21701;-64
2023/01/11 07:03:04;;;;;;;117.30;25.57;;;;;;;2.29;100.00;100268.72;4220674;28;20246;-65
2023/01/11 07:05:32;;;;;;;90.57;24.77;;;;;;;2.29;100.00;100274.00;4221981;28;22372;-68
2023/01/11 07:07:59;;;;;;;90.43;24.13;;;;;;;2.33;100.00;100271.06;4224378;28;21248;-69
2023/01/11 07:10:25;;;;;;;99.00;24.97;;;;;;;2.33;100.00;100271.06;4227312;28;20333;-66
2023/01/11 07:12:52;;;;;;;83.13;21.70;;;;;;;2.32;100.00;100281.69;4242951;28;20340;-65
2023/01/11 07:15:20;;;;;;;66.57;19.50;;;;;;;2.30;100.00;100281.78;4241239;28;20285;-68
2023/01/11 07:17:52;;;;;;;69.43;21.03;;;;;;;2.22;100.00;100275.31;4230873;28;20239;-67
2023/01/11 07:20:19;;;;;;;62.73;20.00;;;;;;;2.19;100.00;100278.13;4235578;28;20306;-66
2023/01/11 07:22:46;;;;;;;65.67;19.80;;;;;;;2.23;100.00;100269.97;4224104;28;20236;-68
2023/01/11 07:25:13;;;;;;;60.57;19.17;;;;;;;2.23;100.00;100269.97;4238005;28;22333;-66
2023/01/11 07:27:39;;;;;;;59.13;18.40;;;;;;;2.24;100.00;100265.56;4247287;28;26444;-62
2023/01/11 07:30:06;;;;;;;57.47;17.20;;;;;;;2.11;100.00;100276.84;4224678;28;21794;-65
2023/01/11 07:32:35;;;;;;;67.03;19.60;;;;;;;2.20;100.00;100274.56;4239981;28;20227;-67
2023/01/11 07:35:02;;;;;;;59.70;17.83;;;;;;;2.17;100.00;100274.75;4230925;28;20236;-68
2023/01/11 07:37:31;;;;;;;59.77;18.60;;;;;;;2.17;100.00;100269.50;4215441;28;20256;-68
2023/01/11 07:39:58;;;;;;;54.73;16.90;;;;;;;2.17;100.00;100266.88;4226348;28;20401;-67
2023/01/11 07:45:10;;;;;;;62.33;18.63;;;;;;;2.18;100.00;100266.81;4223241;28;23110;-66
2023/01/11 07:47:36;;;;;;;72.37;20.97;;;;;;;2.22;100.00;100272.69;4237659;28;20242;-66
2023/01/11 07:50:03;;;;;;;60.33;19.83;;;;;;;2.25;100.00;100269.88;4213805;28;20326;-66
2023/01/11 07:52:30;;;;;;;65.97;21.47;;;;;;;2.30;100.00;100273.91;4227552;28;20290;-67
2023/01/11 07:55:01;;;;;;;54.07;18.63;;;;;;;2.34;100.00;100269.28;4223929;28;20401;-66
2023/01/11 07:57:28;;;;;;;59.07;19.00;;;;;;;2.37;100.00;100270.91;4222547;28;23127;-68
2023/01/11 07:59:55;;;;;;;57.43;18.53;;;;;;;2.40;100.00;100276.78;4217017;28;20417;-71
2023/01/11 08:02:21;;;;;;;58.30;18.40;;;;;;;2.44;100.00;100269.56;4225342;28;21821;-69
2023/01/11 08:04:49;;;;;;;53.83;19.17;;;;;;;2.46;100.00;100258.03;4226065;28;25615;-69
2023/01/11 08:07:15;;;;;;;59.70;19.40;;;;;;;2.58;100.00;100269.53;4221140;28;20239;-68
2023/01/11 08:09:42;;;;;;;53.07;18.23;;;;;;;2.65;100.00;100265.56;4244221;28;20266;-68
2023/01/11 08:14:54;;;;;;;54.87;16.93;;;;;;;2.54;100.00;100265.41;4221030;28;20406;-69
2023/01/11 08:17:20;;;;;;;60.47;19.60;;;;;;;2.57;100.00;100264.38;4228526;28;20231;-77
2023/01/11 08:19:47;;;;;;;57.37;19.07;;;;;;;2.59;100.00;100260.69;4258204;28;20338;-77
2023/01/11 08:22:13;;;;;;;61.50;19.83;;;;;;;2.68;100.00;100259.28;4232528;28;20229;-74
2023/01/11 08:24:40;;;;;;;53.27;18.07;;;;;;;2.60;100.00;100257.16;4210259;28;20233;-73
2023/01/11 08:27:06;;;;;;;49.43;17.07;;;;;;;2.48;100.00;100264.03;4257105;28;20227;-75
2023/01/11 08:29:33;;;;;;;51.83;17.57;;;;;;;2.48;100.00;100263.16;4235840;28;20236;-75
2023/01/11 08:32:00;;;;;;;52.70;17.80;;;;;;;2.56;100.00;100260.91;4256474;28;22630;-73
2023/01/11 08:34:27;;;;;;;49.27;16.87;;;;;;;2.65;100.00;100255.06;4397348;28;20276;-76
2023/01/11 08:37:00;;;;;;;50.57;17.30;;;;;;;2.89;100.00;100254.41;4263635;28;21051;-74
2023/01/11 08:39:30;;;;;;;52.77;17.30;;;;;;;3.13;100.00;100252.78;4251209;28;20369;-73
2023/01/11 08:41:58;;;;;;;46.73;17.17;;;;;;;3.09;100.00;100258.34;4259682;28;22302;-64
2023/01/11 08:44:24;;;;;;;46.53;16.73;;;;;;;2.99;100.00;100257.28;4232739;28;23308;-71
2023/01/11 08:46:59;;;;;;;41.00;16.23;;;;;;;2.98;100.00;100255.59;4247730;28;21458;-72
2023/01/11 08:49:26;;;;;;;44.27;16.67;;;;;;;2.85;100.00;100256.38;4255001;28;25452;-73
2023/01/11 08:51:53;;;;;;;47.87;16.63;;;;;;;2.91;100.00;100256.00;4251565;28;20231;-75
2023/01/11 08:54:19;;;;;;;48.07;16.63;;;;;;;2.93;100.00;100254.13;4222941;28;20458;-71
2023/01/11 08:56:46;;;;;;;45.10;16.77;;;;;;;2.79;100.00;100253.34;4228227;28;20285;-80
2023/01/11 08:59:13;;;;;;;49.83;17.13;;;;;;;2.86;100.00;100258.09;4249775;28;20309;-74
2023/01/11 09:01:39;;;;;;;44.13;16.70;;;;;;;2.89;100.00;100257.03;4243179;28;20366;-74
2023/01/11 09:04:06;;;;;;;48.07;16.47;;;;;;;2.76;100.00;100256.97;4219121;28;25831;-76
2023/01/11 09:06:49;;;;;;;43.00;16.40;;;;;;;2.87;100.00;100259.75;4234126;28;26169;-78
2023/01/11 09:09:15;;;;;;;45.60;16.60;;;;;;;2.69;100.00;100260.94;4258986;28;20232;-73
2023/01/11 09:11:55;;;;;;;47.10;16.33;;;;;;;2.64;100.00;100260.41;4224851;28;20262;-76
2023/01/11 09:14:24;;;;;;;45.53;16.13;;;;;;;2.49;100.00;100254.38;4230859;28;21552;-79
2023/01/11 09:16:51;;;;;;;47.10;17.43;;;;;;;2.53;100.00;100253.22;4272394;28;22473;-73
2023/01/11 09:19:21;;;;;;;41.80;15.43;;;;;;;2.57;100.00;100248.59;4280484;28;20280;-75
2023/01/11 09:21:48;;;;;;;38.80;15.13;;;;;;;2.48;100.00;100257.91;4246050;28;20236;-76
2023/01/11 09:24:15;;;;;;;46.70;16.00;;;;;;;2.40;100.00;100241.81;4230685;28;22407;-73
2023/01/11 09:26:42;;;;;;;46.57;16.57;;;;;;;2.34;100.00;100229.91;4226593;28;20994;-72
2023/01/11 09:29:09;;;;;;;51.20;15.90;;;;;;;2.38;100.00;100223.53;4232480;28;20244;-74
2023/01/11 09:31:36;;;;;;;44.80;16.27;;;;;;;2.38;100.00;100218.28;4220122;28;21494;-70
2023/01/11 09:34:03;;;;;;;41.60;14.73;;;;;;;2.38;100.00;100215.66;4238996;28;20227;-70
2023/01/11 09:36:32;;;;;;;40.63;16.23;;;;;;;2.35;100.00;100217.63;4230486;28;22327;-73
2023/01/11 09:39:00;;;;;;;44.53;15.40;;;;;;;2.30;100.00;100221.38;4221502;28;20288;-72
2023/01/11 09:41:36;;;;;;;41.13;15.37;;;;;;;2.21;100.00;100213.25;4235219;28;20302;-72
2023/01/11 09:44:14;;;;;;;45.50;14.37;;;;;;;2.30;100.00;100215.31;4229613;28;20295;-76
2023/01/11 09:46:48;;;;;;;46.70;16.13;;;;;;;2.26;100.00;100212.00;4245325;28;20229;-76
2023/01/11 09:49:42;;;;;;;43.63;16.17;;;;;;;2.27;100.00;100221.59;4223838;28;20237;-74
2023/01/11 09:52:35;;;;;;;46.90;17.47;;;;;;;2.30;100.00;100220.56;4254994;28;20304;-73
2023/01/11 09:55:01;;;;;;;43.67;16.60;;;;;;;2.37;100.00;100213.97;4228111;28;20231;-77
2023/01/11 09:57:31;;;;;;;60.50;17.00;;;;;;;2.44;100.00;100217.06;4243856;28;20248;-79
2023/01/11 10:00:13;;;;;;;47.10;16.30;;;;;;;2.34;100.00;100214.16;4227342;28;20369;-75
2023/01/11 10:02:43;;;;;;;44.33;16.37;;;;;;;2.22;100.00;100207.06;4237176;28;20303;-72
2023/01/11 10:05:17;;;;;;;48.37;17.70;;;;;;;2.19;100.00;100215.97;4233033;28;22453;-77
2023/01/11 10:08:05;;;;;;;51.43;17.90;;;;;;;2.32;100.00;100209.00;4223838;28;21354;-75
2023/01/11 10:11:03;;;;;;;50.40;17.40;;;;;;;2.42;100.00;100211.06;4240518;28;21235;-75
2023/01/11 10:14:25;;;;;;;45.47;17.43;;;;;;;2.54;100.00;100205.00;4247000;28;20314;-78
2023/01/11 10:17:44;;;;;;;49.13;17.67;;;;;;;2.59;100.00;100196.81;4240167;28;21051;-49
2023/01/11 10:20:39;;;;;;;41.73;17.43;;;;;;;2.54;100.00;100202.38;4216921;28;20240;-70
2023/01/11 10:23:27;;;;;;;45.43;15.90;;;;;;;2.51;100.00;100194.69;4219253;28;20246;-70
2023/01/11 10:25:57;;;;;;;45.67;14.83;;;;;;;2.43;100.00;100191.72;4224036;28;22938;-70
2023/01/11 10:28:33;;;;;;;46.33;15.67;;;;;;;2.45;100.00;100185.41;4244044;28;20232;-70
2023/01/11 10:31:28;;;;;;;43.53;16.43;;;;;;;2.44;100.00;100194.25;4233616;28;22086;-71
2023/01/11 10:34:15;;;;;;;47.30;17.00;;;;;;;2.36;100.00;100196.50;4261220;28;20471;-71
2023/01/11 10:39:54;;;;;;;39.33;15.83;;;;;;;2.31;100.00;100201.22;4256146;28;21490;-70
2023/01/11 10:42:28;;;;;;;41.47;15.47;;;;;;;2.28;100.00;100196.19;4229198;28;20237;-71
2023/01/11 10:45:12;;;;;;;43.63;15.43;;;;;;;2.33;100.00;100189.69;4218458;28;21851;-71
2023/01/11 10:48:05;;;;;;;43.50;16.67;;;;;;;2.45;100.00;100190.66;4229966;28;20241;-71
2023/01/11 10:50:37;;;;;;;36.87;15.33;;;;;;;2.57;100.00;100191.66;4208656;28;23769;-71
2023/01/11 10:53:15;;;;;;;36.93;14.93;;;;;;;2.51;100.00;100182.41;4240673;28;20704;-69
2023/01/11 10:56:14;;;;;;;39.27;14.73;;;;;;;2.57;100.00;100175.06;4235612;28;20240;-70
2023/01/11 10:58:52;;;;;;;41.27;15.50;;;;;;;2.60;100.00;100172.22;4230249;28;20222;-69
2023/01/11 11:01:23;;;;;;;37.30;16.00;;;;;;;2.59;100.00;100171.38;4236692;28;20397;-69
2023/01/11 11:04:19;;;;;;;37.50;15.53;;;;;;;2.72;100.00;100171.44;4232587;28;20379;-70
2023/01/11 11:06:48;;;;;;;38.00;15.77;;;;;;;2.68;100.00;100160.28;4228149;28;23030;-71
2023/01/11 11:09:34;;;;;;;36.87;14.40;;;;;;;2.72;100.00;100161.78;4235102;28;20247;-73
2023/01/11 11:12:17;;;;;;;38.47;16.13;;;;;;;2.66;100.00;100150.81;4231890;28;23027;-72
2023/01/11 11:15:09;;;;;;;34.03;15.43;;;;;;;2.61;100.00;100131.91;4234528;28;22614;-68
2023/01/11 11:17:39;;;;;;;42.27;16.07;;;;;;;2.64;100.00;100142.19;4209164;28;20373;-74
2023/01/11 11:20:20;;;;;;;36.70;16.30;;;;;;;2.64;100.00;100131.69;4225205;28;20735;-70
2023/01/11 11:22:51;;;;;;;45.53;16.13;;;;;;;2.72;100.00;100117.09;4215910;28;20227;-73
2023/01/11 11:25:28;;;;;;;43.30;16.77;;;;;;;2.78;100.00;100118.47;4231939;28;20239;-71
2023/01/11 11:28:05;;;;;;;36.43;14.80;;;;;;;2.87;100.00;100123.09;4279135;28;21424;-70
2023/01/11 11:30:37;;;;;;;40.13;17.20;;;;;;;2.89;100.00;100126.47;4229383;28;20235;-73
2023/01/11 11:33:23;;;;;;;32.03;15.00;;;;;;;2.89;100.00;100115.97;4240214;28;20229;-73
2023/01/11 11:36:04;;;;;;;47.57;15.60;;;;;;;2.96;100.00;100105.88;4227665;28;20470;-72
2023/01/11 11:38:33;;;;;;;37.30;17.23;;;;;;;3.07;100.00;100105.16;4261697;28;20257;-73
2023/01/11 11:41:04;;;;;;;32.40;14.73;;;;;;;3.03;100.00;100108.94;4223400;28;20278;-79
2023/01/11 11:43:32;;;;;;;35.80;15.07;;;;;;;3.07;100.00;100105.16;4272969;28;22005;-75
2023/01/11 11:46:12;;;;;;;34.63;14.37;;;;;;;3.03;100.00;100107.16;4235622;28;22321;-74
2023/01/11 11:49:11;;;;;;;40.87;15.37;;;;;;;2.99;100.00;100110.09;4218033;28;20358;-71
2023/01/11 11:51:39;;;;;;;31.13;13.77;;;;;;;2.94;100.00;100097.25;4247780;28;20537;-72